Time;durP1;ratioP1;P1;durP2;ratioP2;P2;SDS_P1;SDS_P2;PMS_P1;PMS_P2;Temp;Humidity;BMP_temperature;BMP_pressure;BME280_temperature;BME280_humidity;BME280_pressure;Samples;Min_cycle;Max_cycle;Signal;HPM_P1;HPM_P2
2021/11/19 00:02:15;;;;;;;55.78;23.67;;;11.60;99.90;;;;;;5053225;28;20040;-86
2021/11/19 00:04:43;;;;;;;59.28;25.05;;;11.60;99.90;;;;;;5043993;28;20078;-84
2021/11/19 00:07:09;;;;;;;56.05;24.88;;;11.60;99.90;;;;;;5042509;28;20028;-87
2021/11/19 00:09:36;;;;;;;55.15;25.63;;;11.70;99.90;;;;;;5049949;28;20029;-84
2021/11/19 00:12:04;;;;;;;66.78;25.17;;;11.70;99.90;;;;;;5065156;28;20021;-84
2021/11/19 00:14:30;;;;;;;54.83;24.70;;;11.60;99.90;;;;;;5054535;28;20029;-83
2021/11/19 00:17:05;;;;;;;64.45;26.60;;;11.60;99.90;;;;;;5034756;28;20442;-83
2021/11/19 00:19:32;;;;;;;52.08;23.95;;;11.60;99.90;;;;;;5051684;28;20032;-84
2021/11/19 00:21:57;;;;;;;50.20;24.27;;;11.70;99.90;;;;;;5065168;28;20481;-84
2021/11/19 00:24:26;;;;;;;60.53;28.80;;;11.70;99.90;;;;;;5053541;28;20037;-82
2021/11/19 00:26:52;;;;;;;59.25;26.45;;;11.70;99.90;;;;;;5058876;28;20021;-82
2021/11/19 00:29:18;;;;;;;69.53;30.13;;;11.70;99.90;;;;;;5055828;28;20110;-82
2021/11/19 00:31:46;;;;;;;68.15;28.15;;;11.70;99.90;;;;;;5070898;28;20051;-83
2021/11/19 00:34:12;;;;;;;55.38;25.20;;;11.70;99.90;;;;;;5062979;28;20090;-82
2021/11/19 00:36:38;;;;;;;67.05;26.77;;;11.70;99.90;;;;;;5056720;28;20017;-82
2021/11/19 00:39:09;;;;;;;62.85;28.75;;;11.70;99.90;;;;;;5054242;28;20389;-83
2021/11/19 00:41:36;;;;;;;67.32;27.35;;;11.70;99.90;;;;;;5067767;28;20039;-83
2021/11/19 00:44:03;;;;;;;55.63;23.63;;;11.80;99.90;;;;;;5056130;28;20465;-83
2021/11/19 00:46:29;;;;;;;68.80;29.15;;;11.70;99.90;;;;;;5054931;28;20024;-84
2021/11/19 00:48:55;;;;;;;73.13;29.08;;;11.70;99.90;;;;;;5048650;28;20040;-84
2021/11/19 00:51:32;;;;;;;66.55;29.80;;;11.70;99.90;;;;;;5069324;28;20021;-83
2021/11/19 00:53:59;;;;;;;59.95;27.10;;;11.70;99.90;;;;;;5060180;28;20457;-83
2021/11/19 00:56:29;;;;;;;59.10;28.35;;;11.80;99.90;;;;;;5074430;28;20472;-83
2021/11/19 00:58:56;;;;;;;73.35;31.23;;;11.80;99.90;;;;;;5059400;28;20083;-84
2021/11/19 01:01:26;;;;;;;69.78;30.10;;;11.80;99.90;;;;;;5054359;28;20074;-84
2021/11/19 01:03:52;;;;;;;67.15;29.95;;;11.80;99.90;;;;;;5072012;28;20036;-83
2021/11/19 01:06:18;;;;;;;78.30;30.98;;;11.80;99.90;;;;;;5066324;28;20020;-83
2021/11/19 01:08:44;;;;;;;64.20;28.05;;;11.80;99.90;;;;;;5066944;28;20025;-84
2021/11/19 01:11:12;;;;;;;72.40;31.00;;;11.80;99.90;;;;;;5060426;28;20385;-86
2021/11/19 01:13:40;;;;;;;78.43;32.92;;;11.70;99.90;;;;;;5069864;28;20051;-85
2021/11/19 01:16:12;;;;;;;79.22;32.92;;;11.70;99.90;;;;;;5044776;28;20029;-84
2021/11/19 01:18:48;;;;;;;77.00;30.77;;;11.70;99.90;;;;;;5044887;28;20033;-85
2021/11/19 01:21:19;;;;;;;65.35;28.75;;;11.70;99.90;;;;;;5045751;28;20017;-85
2021/11/19 01:23:47;;;;;;;68.43;31.13;;;11.60;99.90;;;;;;5057973;28;20021;-85
2021/11/19 01:26:23;;;;;;;78.07;34.45;;;11.70;99.90;;;;;;5039660;28;20021;-84
2021/11/19 01:29:06;;;;;;;86.78;35.53;;;11.80;99.90;;;;;;5045974;28;20115;-84
2021/11/19 01:31:36;;;;;;;79.32;33.88;;;11.70;99.90;;;;;;5051833;28;20185;-84
2021/11/19 01:34:02;;;;;;;88.55;37.95;;;11.80;99.90;;;;;;5042078;28;20021;-84
2021/11/19 01:36:29;;;;;;;70.95;33.78;;;11.80;99.90;;;;;;5044381;28;20761;-85
2021/11/19 01:38:55;;;;;;;83.90;34.70;;;11.80;99.90;;;;;;5043277;28;20036;-85
2021/11/19 01:41:35;;;;;;;79.35;32.67;;;11.80;99.90;;;;;;5045535;28;20021;-85
2021/11/19 01:44:16;;;;;;;83.18;37.55;;;11.90;99.90;;;;;;5040835;28;20111;-85
2021/11/19 01:46:52;;;;;;;76.68;33.58;;;11.80;99.90;;;;;;5040600;28;20027;-85
2021/11/19 01:49:19;;;;;;;81.78;35.08;;;11.80;99.90;;;;;;5041053;28;20116;-84
2021/11/19 01:52:11;;;;;;;83.35;36.08;;;11.90;99.90;;;;;;5041053;28;20171;-84
2021/11/19 01:54:59;;;;;;;86.40;35.67;;;11.90;99.90;;;;;;5045703;28;20058;-84
2021/11/19 01:57:38;;;;;;;93.78;35.67;;;11.90;99.90;;;;;;5043168;28;20025;-85
2021/11/19 02:00:07;;;;;;;72.90;33.53;;;11.90;99.90;;;;;;5052372;28;20040;-85
2021/11/19 02:02:38;;;;;;;80.75;33.72;;;11.90;99.90;;;;;;5045102;28;20038;-85
2021/11/19 02:05:06;;;;;;;66.85;30.67;;;11.90;99.90;;;;;;5039045;28;20021;-86
2021/11/19 02:07:38;;;;;;;76.68;34.75;;;12.00;99.90;;;;;;5040212;28;20033;-86
2021/11/19 02:10:13;;;;;;;73.85;34.22;;;11.90;99.90;;;;;;5044747;28;20009;-86
2021/11/19 02:12:44;;;;;;;83.32;35.55;;;11.90;99.90;;;;;;5043849;28;20021;-85
2021/11/19 02:15:14;;;;;;;87.80;37.75;;;12.00;99.90;;;;;;5042300;28;20074;-85
2021/11/19 02:17:43;;;;;;;81.85;33.28;;;12.00;99.90;;;;;;5041120;28;20064;-84
2021/11/19 02:20:16;;;;;;;86.38;37.13;;;12.00;99.90;;;;;;5046015;28;20034;-84
2021/11/19 02:22:47;;;;;;;;;;;12.00;99.90;;;;;;5058880;28;20026;-84
2021/11/19 02:25:31;;;;;;;89.47;35.42;;;12.00;99.90;;;;;;5040150;28;19908;-85
2021/11/19 02:28:05;;;;;;;85.38;34.83;;;12.00;99.90;;;;;;5060148;28;20017;-84
2021/11/19 02:30:42;;;;;;;90.63;35.72;;;12.00;99.90;;;;;;5042033;28;20041;-85
2021/11/19 02:33:11;;;;;;;67.00;32.17;;;11.90;99.90;;;;;;5038507;28;20393;-84
2021/11/19 02:35:58;;;;;;;83.13;35.72;;;12.00;99.90;;;;;;5068526;28;20025;-85
2021/11/19 02:38:31;;;;;;;82.45;34.17;;;12.00;99.90;;;;;;5062922;28;20103;-85
2021/11/19 02:40:57;;;;;;;69.38;29.30;;;12.00;99.90;;;;;;5073436;28;20060;-87
2021/11/19 02:43:33;;;;;;;71.30;29.58;;;12.00;99.90;;;;;;5057473;28;20295;-86
2021/11/19 02:45:59;;;;;;;86.00;37.20;;;12.10;99.90;;;;;;5068928;28;20021;-85
2021/11/19 02:48:29;;;;;;;74.47;32.70;;;12.00;99.90;;;;;;5050446;28;20029;-85
2021/11/19 02:50:57;;;;;;;85.00;34.53;;;12.10;99.90;;;;;;5052119;28;20031;-86
2021/11/19 02:53:24;;;;;;;86.28;34.95;;;12.10;99.90;;;;;;5068555;28;20024;-86
2021/11/19 02:55:52;;;;;;;76.25;34.03;;;12.10;99.90;;;;;;5043011;28;20278;-87
2021/11/19 02:58:23;;;;;;;85.35;37.42;;;12.10;99.90;;;;;;5064392;28;20032;-85
2021/11/19 03:01:18;;;;;;;73.88;32.28;;;12.00;99.90;;;;;;5038808;28;20022;-85
2021/11/19 03:03:55;;;;;;;80.10;34.42;;;12.10;99.90;;;;;;5040946;28;20076;-86
2021/11/19 03:06:20;;;;;;;79.75;34.55;;;12.00;99.90;;;;;;5062039;28;20070;-86
2021/11/19 03:08:47;;;;;;;80.55;35.38;;;12.10;99.90;;;;;;5048149;28;20437;-87
2021/11/19 03:11:14;;;;;;;78.13;33.33;;;12.10;99.90;;;;;;5063993;28;20051;-86
2021/11/19 03:13:41;;;;;;;83.57;35.95;;;12.10;99.90;;;;;;5052418;28;20017;-86
2021/11/19 03:16:08;;;;;;;80.15;33.72;;;12.10;99.90;;;;;;5061342;28;20028;-87
2021/11/19 03:18:35;;;;;;;79.47;34.65;;;12.20;99.90;;;;;;5059256;28;20032;-86
2021/11/19 03:21:10;;;;;;;78.13;33.67;;;12.10;99.90;;;;;;5056952;28;20807;-86
2021/11/19 03:23:37;;;;;;;80.10;33.08;;;12.10;99.90;;;;;;5051933;28;20267;-86
2021/11/19 03:26:04;;;;;;;79.43;35.47;;;12.10;99.90;;;;;;5041934;28;20299;-85
2021/11/19 03:28:30;;;;;;;78.80;34.53;;;12.10;99.90;;;;;;5033611;28;20025;-86
2021/11/19 03:31:02;;;;;;;86.05;35.10;;;12.10;99.90;;;;;;5065096;28;20381;-87
2021/11/19 03:33:30;;;;;;;72.13;32.25;;;12.10;99.90;;;;;;5071863;28;20024;-88
2021/11/19 03:35:57;;;;;;;67.35;33.25;;;12.10;99.90;;;;;;5072008;28;20024;-87
2021/11/19 03:38:27;;;;;;;67.55;31.45;;;12.10;99.90;;;;;;5062331;28;20017;-86
2021/11/19 03:40:54;;;;;;;75.22;32.28;;;12.10;99.90;;;;;;5065824;28;20021;-87
2021/11/19 03:43:26;;;;;;;83.68;34.72;;;12.10;99.90;;;;;;5059324;28;20033;-85
2021/11/19 03:45:57;;;;;;;69.25;32.30;;;12.10;99.90;;;;;;5067491;28;20021;-87
2021/11/19 03:48:26;;;;;;;75.50;33.90;;;12.10;99.90;;;;;;5056343;28;20481;-85
2021/11/19 03:50:58;;;;;;;80.22;32.28;;;12.10;99.90;;;;;;5058365;28;20102;-86
2021/11/19 03:53:26;;;;;;;77.88;35.75;;;12.10;99.90;;;;;;5068237;28;20056;-86
2021/11/19 03:55:53;;;;;;;78.10;35.38;;;12.10;99.90;;;;;;5045942;28;20029;-86
2021/11/19 03:58:23;;;;;;;61.95;31.17;;;12.20;99.90;;;;;;5042957;28;20126;-86
2021/11/19 04:01:00;;;;;;;83.18;35.40;;;12.20;99.90;;;;;;5064621;28;20033;-85
2021/11/19 04:03:28;;;;;;;75.80;32.50;;;12.20;99.90;;;;;;5052585;28;20052;-85
2021/11/19 04:05:54;;;;;;;85.53;34.10;;;12.20;99.90;;;;;;5056230;28;20009;-86
2021/11/19 04:08:22;;;;;;;84.97;35.70;;;12.10;99.90;;;;;;5063293;28;20029;-85
2021/11/19 04:10:48;;;;;;;71.13;33.13;;;12.10;99.90;;;;;;5051713;28;20017;-86
2021/11/19 04:13:16;;;;;;;78.75;34.50;;;12.10;99.90;;;;;;5067849;28;20377;-86
2021/11/19 04:15:46;;;;;;;73.07;33.05;;;12.10;99.90;;;;;;5032180;28;20033;-85
2021/11/19 04:18:13;;;;;;;67.30;30.67;;;12.10;99.90;;;;;;5045538;28;20064;-86
2021/11/19 04:20:40;;;;;;;73.55;33.58;;;12.10;99.90;;;;;;5032115;28;20026;-85
2021/11/19 04:23:07;;;;;;;80.10;34.72;;;12.10;99.90;;;;;;5062626;28;20072;-86
2021/11/19 04:25:34;;;;;;;74.38;34.17;;;12.20;99.90;;;;;;5058612;28;20022;-86
2021/11/19 04:28:00;;;;;;;76.88;34.42;;;12.10;99.90;;;;;;5070134;28;20032;-85
2021/11/19 04:30:35;;;;;;;85.53;35.67;;;12.10;99.90;;;;;;5064018;28;20031;-85
2021/11/19 04:33:01;;;;;;;77.57;34.42;;;12.20;99.90;;;;;;5035318;28;20078;-85
2021/11/19 04:35:30;;;;;;;68.68;31.63;;;12.10;99.90;;;;;;5057288;28;20455;-86
2021/11/19 04:37:57;;;;;;;67.82;33.10;;;12.20;99.90;;;;;;5069471;28;20044;-85
2021/11/19 04:40:24;;;;;;;76.07;34.35;;;12.10;99.90;;;;;;5055448;28;20492;-86
2021/11/19 04:42:51;;;;;;;75.10;32.83;;;12.20;99.90;;;;;;5074868;28;20147;-86
2021/11/19 04:45:22;;;;;;;82.20;34.30;;;12.20;99.90;;;;;;5058408;28;20112;-86
2021/11/19 04:47:49;;;;;;;79.85;36.22;;;12.20;99.90;;;;;;5059483;28;20017;-86
2021/11/19 04:50:18;;;;;;;69.25;33.03;;;12.10;99.90;;;;;;5054569;28;20017;-86
2021/11/19 04:52:45;;;;;;;85.45;36.38;;;12.20;99.90;;;;;;5054578;28;20078;-86
2021/11/19 04:55:12;;;;;;;72.40;35.05;;;12.20;99.90;;;;;;5054540;28;20017;-86
2021/11/19 04:57:38;;;;;;;79.05;34.55;;;12.20;99.90;;;;;;5071042;28;20025;-86
2021/11/19 05:00:11;;;;;;;79.18;35.45;;;12.20;99.90;;;;;;5054710;28;20036;-85
2021/11/19 05:02:37;;;;;;;70.95;33.35;;;12.20;99.90;;;;;;5065476;28;20102;-86
2021/11/19 05:05:04;;;;;;;74.03;35.00;;;12.10;99.90;;;;;;5072276;28;20028;-85
2021/11/19 05:07:30;;;;;;;78.18;35.50;;;12.20;99.90;;;;;;5055573;28;20140;-85
2021/11/19 05:09:55;;;;;;;76.05;36.35;;;12.20;99.90;;;;;;5047096;28;20080;-86
2021/11/19 05:12:31;;;;;;;82.97;37.13;;;12.20;99.90;;;;;;5065503;28;20021;-85
2021/11/19 05:14:58;;;;;;;72.80;34.03;;;12.20;99.90;;;;;;5052215;28;20021;-86
2021/11/19 05:17:25;;;;;;;82.32;36.35;;;12.20;99.90;;;;;;5044025;28;20032;-85
2021/11/19 05:19:51;;;;;;;84.60;37.35;;;12.30;99.90;;;;;;5053101;28;20031;-85
2021/11/19 05:22:17;;;;;;;84.57;37.60;;;12.30;99.90;;;;;;5064461;28;20025;-84
2021/11/19 05:24:45;;;;;;;88.72;39.33;;;12.30;99.90;;;;;;5065072;28;20043;-85
2021/11/19 05:27:11;;;;;;;78.88;36.20;;;12.30;99.90;;;;;;5054336;28;20024;-86
2021/11/19 05:29:36;;;;;;;92.45;39.65;;;12.30;99.90;;;;;;5071705;28;20033;-85
2021/11/19 05:32:03;;;;;;;81.25;35.95;;;12.30;99.90;;;;;;5055321;28;20048;-86
2021/11/19 05:34:30;;;;;;;83.13;38.17;;;12.30;99.90;;;;;;5052439;28;20053;-86
2021/11/19 05:36:57;;;;;;;80.93;36.03;;;12.20;99.90;;;;;;5067590;28;20021;-85
2021/11/19 05:39:23;;;;;;;86.57;37.47;;;12.20;99.90;;;;;;5070520;28;20081;-86
2021/11/19 05:41:50;;;;;;;77.43;36.72;;;12.20;99.90;;;;;;5061705;28;20033;-86
2021/11/19 05:44:16;;;;;;;100.30;40.55;;;12.30;99.90;;;;;;5068560;28;20021;-86
2021/11/19 05:46:43;;;;;;;90.03;39.13;;;12.30;99.90;;;;;;5056524;28;20044;-86
2021/11/19 05:49:12;;;;;;;80.97;37.45;;;12.30;99.90;;;;;;5047489;28;20032;-87
2021/11/19 05:51:41;;;;;;;86.55;37.67;;;12.30;99.90;;;;;;5052576;28;20032;-87
2021/11/19 05:54:11;;;;;;;92.38;38.72;;;12.30;99.90;;;;;;5061092;28;20017;-87
2021/11/19 05:56:37;;;;;;;89.95;37.85;;;12.30;99.90;;;;;;5073838;28;20016;-87
2021/11/19 05:59:04;;;;;;;87.80;38.38;;;12.20;99.90;;;;;;5073863;28;20028;-86
2021/11/19 06:01:30;;;;;;;86.40;39.63;;;12.20;99.90;;;;;;5056252;28;20385;-86
2021/11/19 06:03:56;;;;;;;94.63;40.80;;;12.10;99.90;;;;;;5066460;28;20107;-87
2021/11/19 06:06:23;;;;;;;84.65;40.38;;;12.20;99.90;;;;;;5053092;28;20586;-86
2021/11/19 06:08:49;;;;;;;92.75;38.88;;;12.20;99.90;;;;;;5073271;28;20059;-86
2021/11/19 06:11:26;;;;;;;96.05;39.13;;;12.20;99.90;;;;;;5056862;28;20439;-86
2021/11/19 06:14:13;;;;;;;102.68;41.67;;;12.20;99.90;;;;;;5043736;28;20025;-87
2021/11/19 06:16:54;;;;;;;110.68;44.15;;;12.30;99.90;;;;;;5058864;28;20030;-86
2021/11/19 06:19:24;;;;;;;93.38;41.47;;;12.30;99.90;;;;;;5045372;28;20034;-86
2021/11/19 06:22:12;;;;;;;100.00;42.42;;;12.30;99.90;;;;;;5046705;28;20045;-86
2021/11/19 06:24:45;;;;;;;100.60;43.75;;;12.30;99.90;;;;;;5057150;28;20079;-85
2021/11/19 06:27:13;;;;;;;89.53;38.35;;;12.30;99.90;;;;;;5068462;28;20032;-85
2021/11/19 06:29:39;;;;;;;77.75;36.35;;;12.30;99.90;;;;;;5052821;28;20024;-86
2021/11/19 06:32:07;;;;;;;102.15;41.22;;;12.30;99.90;;;;;;5052657;28;20100;-85
2021/11/19 06:34:34;;;;;;;100.20;40.55;;;12.30;99.90;;;;;;5063346;28;20039;-84
2021/11/19 06:37:01;;;;;;;85.60;36.83;;;12.30;99.90;;;;;;5072530;28;20784;-85
2021/11/19 06:39:26;;;;;;;92.65;40.40;;;12.30;99.90;;;;;;5049522;28;20021;-85
2021/11/19 06:41:53;;;;;;;100.57;41.50;;;12.30;99.90;;;;;;5049295;28;20039;-86
2021/11/19 06:44:19;;;;;;;104.35;42.22;;;12.30;99.90;;;;;;5052448;28;20024;-85
2021/11/19 06:46:44;;;;;;;101.45;42.83;;;12.30;99.90;;;;;;5049316;28;20021;-84
2021/11/19 06:49:11;;;;;;;107.13;45.92;;;12.30;99.90;;;;;;5049390;28;20031;-84
2021/11/19 06:51:37;;;;;;;114.97;50.53;;;12.30;99.90;;;;;;5054526;28;20025;-85
2021/11/19 06:54:04;;;;;;;104.82;49.72;;;12.30;99.90;;;;;;5058306;28;20031;-84
2021/11/19 06:56:30;;;;;;;93.47;42.28;;;12.30;99.90;;;;;;5071713;28;20052;-86
2021/11/19 06:58:57;;;;;;;99.80;41.97;;;12.30;99.90;;;;;;5062860;28;20150;-85
2021/11/19 07:01:23;;;;;;;103.78;44.17;;;12.30;99.90;;;;;;5040422;28;20021;-85
2021/11/19 07:03:49;;;;;;;92.05;40.95;;;12.30;99.90;;;;;;5066005;28;20106;-85
2021/11/19 07:06:15;;;;;;;94.97;41.22;;;12.30;99.90;;;;;;5060199;28;20457;-86
2021/11/19 07:08:42;;;;;;;92.88;40.72;;;12.30;99.90;;;;;;5072019;28;20024;-86
2021/11/19 07:11:18;;;;;;;113.80;44.03;;;12.30;99.90;;;;;;5072348;28;20089;-86
2021/11/19 07:13:48;;;;;;;114.95;46.55;;;12.20;99.90;;;;;;5040040;28;20025;-87
2021/11/19 07:16:15;;;;;;;110.13;44.13;;;12.20;99.90;;;;;;5057370;28;20073;-86
2021/11/19 07:18:41;;;;;;;102.22;43.65;;;12.20;99.90;;;;;;5063333;28;20028;-87
2021/11/19 07:21:07;;;;;;;96.45;41.00;;;12.30;99.90;;;;;;5057530;28;20025;-89
2021/11/19 07:23:39;;;;;;;90.60;39.05;;;12.30;99.90;;;;;;5053094;28;20044;-89
2021/11/19 07:26:06;;;;;;;100.32;44.35;;;12.30;99.90;;;;;;5052572;28;20021;-88
2021/11/19 07:28:35;;;;;;;99.88;43.00;;;12.40;99.90;;;;;;5052329;28;20032;-89
2021/11/19 07:31:06;;;;;;;109.88;44.20;;;12.40;99.90;;;;;;5038060;28;20133;-89
2021/11/19 07:33:33;;;;;;;114.13;46.22;;;12.40;99.90;;;;;;5049548;28;20053;-88
2021/11/19 07:36:00;;;;;;;94.00;40.50;;;12.40;99.90;;;;;;5033138;28;20052;-88
2021/11/19 07:38:27;;;;;;;132.32;48.47;;;12.30;99.90;;;;;;5033669;28;20032;-89
2021/11/19 07:40:56;;;;;;;120.60;45.58;;;12.30;99.90;;;;;;5033004;28;20033;-89
2021/11/19 07:43:27;;;;;;;102.35;42.50;;;12.30;99.90;;;;;;5040392;28;20087;-88
2021/11/19 07:46:00;;;;;;;103.72;42.35;;;12.30;99.90;;;;;;5062973;28;20469;-88
2021/11/19 07:48:32;;;;;;;112.65;42.13;;;12.30;99.90;;;;;;5048813;28;20394;-88
2021/11/19 07:51:07;;;;;;;95.75;43.97;;;12.30;99.90;;;;;;5063111;28;20457;-86
2021/11/19 07:53:34;;;;;;;103.22;43.28;;;12.30;99.90;;;;;;5045684;28;20456;-87
2021/11/19 07:56:00;;;;;;;105.57;43.53;;;12.30;99.90;;;;;;5039174;28;20132;-86
2021/11/19 07:58:29;;;;;;;109.65;47.00;;;12.30;99.90;;;;;;5046732;28;20071;-86
2021/11/19 08:00:56;;;;;;;110.95;45.10;;;12.40;99.90;;;;;;5049649;28;20033;-87
2021/11/19 08:03:22;;;;;;;106.53;44.17;;;12.40;99.90;;;;;;5046834;28;20029;-86
2021/11/19 08:05:52;;;;;;;116.10;46.47;;;12.30;99.90;;;;;;5045438;28;20025;-85
2021/11/19 08:08:18;;;;;;;109.88;42.65;;;12.40;99.90;;;;;;5051843;28;20021;-86
2021/11/19 08:10:45;;;;;;;94.28;40.45;;;12.40;99.90;;;;;;5046560;28;20381;-86
2021/11/19 08:13:10;;;;;;;105.20;44.67;;;12.40;99.90;;;;;;5053511;28;20032;-87
2021/11/19 08:15:38;;;;;;;126.25;45.60;;;12.40;99.90;;;;;;5053263;28;20024;-84
2021/11/19 08:18:11;;;;;;;113.32;43.83;;;12.40;99.90;;;;;;5040091;28;20112;-85
2021/11/19 08:20:39;;;;;;;99.40;41.33;;;12.50;99.90;;;;;;5046988;28;20493;-87
2021/11/19 08:23:14;;;;;;;95.28;40.70;;;12.50;99.90;;;;;;5044410;28;20619;-89
2021/11/19 08:25:40;;;;;;;107.00;42.10;;;12.50;99.90;;;;;;5044164;28;20104;-88
2021/11/19 08:28:06;;;;;;;95.32;40.40;;;12.50;99.90;;;;;;5054786;28;20033;-86
2021/11/19 08:30:36;;;;;;;99.50;44.38;;;12.50;99.90;;;;;;5045245;28;20186;-80
2021/11/19 08:33:05;;;;;;;91.20;40.58;;;12.50;99.90;;;;;;5041783;28;20021;-80
2021/11/19 08:35:34;;;;;;;101.65;41.55;;;12.50;99.90;;;;;;5048408;28;20029;-78
2021/11/19 08:38:00;;;;;;;97.88;44.13;;;12.50;99.90;;;;;;5045752;28;20025;-77
2021/11/19 08:40:27;;;;;;;101.00;42.30;;;12.50;99.90;;;;;;5042075;28;20048;-79
2021/11/19 08:42:53;;;;;;;96.82;43.65;;;12.50;99.90;;;;;;5043492;28;20037;-79
2021/11/19 08:45:21;;;;;;;111.55;49.58;;;12.50;99.90;;;;;;5043263;28;20020;-79
2021/11/19 08:47:49;;;;;;;104.03;44.05;;;12.60;99.90;;;;;;5045396;28;20021;-79
2021/11/19 08:50:17;;;;;;;95.45;40.38;;;12.50;99.90;;;;;;5042265;28;20016;-84
2021/11/19 08:52:43;;;;;;;101.30;43.70;;;12.50;99.90;;;;;;5041382;28;20129;-83
2021/11/19 08:55:11;;;;;;;107.75;43.47;;;12.60;99.90;;;;;;5045048;28;20048;-80
2021/11/19 08:57:37;;;;;;;102.38;43.47;;;12.50;99.90;;;;;;5040339;28;20107;-84
2021/11/19 09:00:14;;;;;;;100.43;42.63;;;12.50;99.90;;;;;;5038599;28;20032;-84
2021/11/19 09:02:41;;;;;;;96.65;42.72;;;12.60;99.90;;;;;;5037187;28;20120;-87
2021/11/19 09:05:08;;;;;;;109.00;46.25;;;12.70;99.90;;;;;;5042139;28;20022;-84
2021/11/19 09:07:35;;;;;;;96.90;41.70;;;12.60;99.90;;;;;;5042253;28;20040;-79
2021/11/19 09:10:06;;;;;;;104.00;43.05;;;12.60;99.90;;;;;;5040880;28;20024;-79
2021/11/19 09:12:32;;;;;;;110.22;43.20;;;12.60;99.90;;;;;;5042630;28;20044;-82
2021/11/19 09:14:57;;;;;;;113.47;44.63;;;12.60;99.90;;;;;;5041891;28;20025;-81
2021/11/19 09:17:24;;;;;;;108.75;43.83;;;12.70;99.90;;;;;;5043208;28;20284;-81
2021/11/19 09:20:06;;;;;;;105.15;45.75;;;12.70;99.90;;;;;;5040142;28;20025;-82
2021/11/19 09:22:37;;;;;;;112.80;44.63;;;12.70;99.90;;;;;;5047653;28;20041;-82
2021/11/19 09:25:10;;;;;;;99.80;42.53;;;12.70;99.90;;;;;;5042022;28;20017;-81
2021/11/19 09:27:36;;;;;;;99.32;43.60;;;12.70;99.90;;;;;;5042842;28;20036;-80
2021/11/19 09:30:36;;;;;;;101.70;42.80;;;12.70;99.90;;;;;;5042888;28;20078;-81
2021/11/19 09:33:03;;;;;;;106.25;44.80;;;12.70;99.90;;;;;;5044529;28;20385;-81
2021/11/19 09:35:31;;;;;;;92.68;40.80;;;12.70;99.90;;;;;;5044289;28;20432;-81
2021/11/19 09:37:57;;;;;;;99.82;43.97;;;12.70;99.90;;;;;;5042617;28;20024;-81
2021/11/19 09:40:31;;;;;;;112.18;44.03;;;12.70;99.90;;;;;;5044443;28;20059;-81
2021/11/19 09:43:23;;;;;;;97.28;44.30;;;12.80;99.90;;;;;;5043157;28;20041;-81
2021/11/19 09:46:14;;;;;;;102.63;45.35;;;12.80;99.90;;;;;;5042496;28;20017;-80
2021/11/19 09:49:10;;;;;;;112.93;46.40;;;12.80;99.90;;;;;;5041155;28;20100;-83
2021/11/19 09:51:59;;;;;;;98.43;43.63;;;12.90;99.90;;;;;;5046927;28;20516;-84
2021/11/19 09:54:47;;;;;;;90.70;39.92;;;12.90;99.90;;;;;;5040817;28;20041;-84
2021/11/19 09:57:41;;;;;;;96.90;44.30;;;13.00;99.90;;;;;;5040544;28;20014;-83
2021/11/19 10:00:12;;;;;;;101.93;43.85;;;13.00;99.90;;;;;;5040565;28;20472;-87
2021/11/19 10:02:55;;;;;;;94.47;43.22;;;13.00;99.90;;;;;;5044065;28;20098;-85
2021/11/19 10:05:55;;;;;;;95.50;42.65;;;13.00;99.90;;;;;;5048180;28;20033;-85
2021/11/19 10:08:24;;;;;;;84.32;42.15;;;13.10;99.90;;;;;;5041256;28;20473;-81
2021/11/19 10:11:02;;;;;;;90.55;41.58;;;13.20;99.90;;;;;;5042554;28;20060;-80
2021/11/19 10:13:47;;;;;;;90.63;44.05;;;13.10;99.90;;;;;;5044049;28;20033;-80
2021/11/19 10:16:44;;;;;;;88.70;41.45;;;13.20;99.90;;;;;;5044961;28;20102;-81
2021/11/19 10:19:25;;;;;;;91.40;43.92;;;13.10;99.90;;;;;;5044681;28;20446;-80
2021/11/19 10:21:51;;;;;;;91.05;43.42;;;13.20;99.90;;;;;;5043475;28;20063;-80
2021/11/19 10:24:42;;;;;;;89.95;43.05;;;13.20;99.90;;;;;;5045043;28;20087;-80
2021/11/19 10:27:18;;;;;;;89.57;43.08;;;13.20;99.90;;;;;;5045109;28;20021;-80
2021/11/19 10:29:48;;;;;;;83.22;41.28;;;13.20;99.90;;;;;;5044989;28;20036;-76
2021/11/19 10:32:19;;;;;;;90.13;43.35;;;13.20;99.90;;;;;;5042465;28;20432;-80
2021/11/19 10:35:11;;;;;;;87.60;41.90;;;13.30;99.90;;;;;;5043817;28;20116;-80
2021/11/19 10:38:14;;;;;;;88.03;41.65;;;13.30;99.90;;;;;;5069525;28;20083;-80
2021/11/19 10:40:42;;;;;;;82.57;40.85;;;13.30;99.90;;;;;;5062565;28;20032;-81
2021/11/19 10:43:08;;;;;;;84.22;42.60;;;13.30;99.90;;;;;;5056412;28;20045;-80
2021/11/19 10:45:57;;;;;;;83.57;41.15;;;13.40;99.90;;;;;;5061871;28;20159;-81
2021/11/19 10:49:07;;;;;;;82.53;39.88;;;13.30;99.90;;;;;;5046797;28;20024;-80
2021/11/19 10:52:04;;;;;;;75.53;40.40;;;13.40;99.90;;;;;;5066946;28;20024;-80
2021/11/19 10:54:42;;;;;;;77.53;41.60;;;13.40;99.90;;;;;;5051962;28;20414;-80
2021/11/19 10:57:42;;;;;;;74.05;40.00;;;13.40;99.90;;;;;;5063305;28;20499;-81
2021/11/19 11:00:13;;;;;;;74.15;38.08;;;13.50;99.90;;;;;;5041769;28;20059;-80
2021/11/19 11:02:47;;;;;;;78.75;39.15;;;13.50;99.90;;;;;;5051860;28;20401;-81
2021/11/19 11:05:28;;;;;;;71.00;37.30;;;13.50;99.90;;;;;;5041702;28;20025;-80
2021/11/19 11:08:09;;;;;;;77.68;41.28;;;13.50;99.90;;;;;;5053794;28;20036;-80
2021/11/19 11:10:45;;;;;;;84.72;42.22;;;13.50;99.90;;;;;;5063621;28;20031;-80
2021/11/19 11:13:34;;;;;;;72.88;36.85;;;13.60;99.90;;;;;;5056687;28;20028;-80
2021/11/19 11:16:18;;;;;;;73.00;38.33;;;13.60;99.90;;;;;;5043814;28;20024;-80
2021/11/19 11:18:47;;;;;;;69.43;36.20;;;13.60;99.90;;;;;;5051482;28;20064;-80
2021/11/19 11:21:42;;;;;;;67.13;36.00;;;13.60;99.90;;;;;;5044079;28;20116;-80
2021/11/19 11:24:10;;;;;;;67.10;36.17;;;13.70;99.90;;;;;;5046911;28;20032;-80
2021/11/19 11:26:48;;;;;;;73.47;37.88;;;13.70;99.90;;;;;;5061367;28;20025;-81
2021/11/19 11:29:17;;;;;;;71.93;37.25;;;13.70;99.90;;;;;;5047657;28;20068;-81
2021/11/19 11:31:59;;;;;;;65.85;34.72;;;13.70;99.90;;;;;;5038780;28;20020;-80
2021/11/19 11:34:29;;;;;;;64.68;35.90;;;13.70;99.90;;;;;;5057327;28;20473;-80
2021/11/19 11:37:16;;;;;;;57.15;33.47;;;13.70;99.90;;;;;;5058683;28;20037;-81
2021/11/19 11:40:23;;;;;;;63.83;35.85;;;13.70;99.90;;;;;;5038240;28;20021;-81
2021/11/19 11:43:14;;;;;;;67.35;35.78;;;13.80;99.90;;;;;;5059480;28;20048;-80
2021/11/19 11:45:44;;;;;;;65.65;36.47;;;13.80;99.90;;;;;;5068535;28;20029;-81
2021/11/19 11:48:21;;;;;;;59.47;36.63;;;13.90;99.90;;;;;;5048781;28;20059;-81
2021/11/19 11:50:59;;;;;;;57.13;32.97;;;13.90;99.90;;;;;;5059219;28;20424;-81
2021/11/19 11:53:40;;;;;;;57.78;33.38;;;13.90;99.90;;;;;;5063678;28;20021;-80
2021/11/19 11:56:26;;;;;;;56.65;31.88;;;13.90;99.90;;;;;;5065544;28;20050;-80
2021/11/19 11:58:58;;;;;;;57.33;33.03;;;13.80;99.90;;;;;;5065447;28;20023;-80
2021/11/19 12:01:52;;;;;;;58.58;32.53;;;13.80;99.90;;;;;;5051697;28;20036;-80
2021/11/19 12:04:42;;;;;;;55.67;31.75;;;13.90;99.90;;;;;;5069002;28;20037;-80
2021/11/19 12:07:24;;;;;;;55.17;31.45;;;13.90;99.90;;;;;;5054906;28;20099;-84
2021/11/19 12:10:05;;;;;;;57.05;31.92;;;13.90;99.90;;;;;;5033336;28;20025;-83
2021/11/19 12:12:37;;;;;;;52.92;31.70;;;13.80;99.90;;;;;;5061575;28;20024;-82
2021/11/19 12:15:27;;;;;;;52.38;32.13;;;13.80;99.90;;;;;;5056146;28;20036;-82
2021/11/19 12:18:20;;;;;;;55.03;31.23;;;13.90;99.90;;;;;;5040273;28;20107;-82
2021/11/19 12:20:59;;;;;;;54.10;31.67;;;13.90;99.90;;;;;;5057664;28;20021;-82
2021/11/19 12:23:51;;;;;;;52.88;29.73;;;13.90;99.90;;;;;;5067008;28;20037;-83
2021/11/19 12:26:41;;;;;;;59.63;32.00;;;13.90;99.90;;;;;;5060749;28;20108;-83
2021/11/19 12:29:12;;;;;;;55.55;32.33;;;13.90;99.90;;;;;;5069198;28;20267;-83
2021/11/19 12:32:12;;;;;;;58.75;34.17;;;13.90;99.90;;;;;;5054049;28;20028;-82
2021/11/19 12:34:44;;;;;;;54.63;32.70;;;13.90;99.90;;;;;;5060581;28;20029;-85
2021/11/19 12:37:13;;;;;;;57.25;32.28;;;13.90;99.90;;;;;;5066720;28;20044;-83
2021/11/19 12:39:45;;;;;;;57.97;32.85;;;13.90;99.90;;;;;;5055070;28;20029;-83
2021/11/19 12:42:31;;;;;;;61.40;34.00;;;14.00;99.90;;;;;;5062711;28;20090;-85
2021/11/19 12:45:24;;;;;;;57.83;33.00;;;13.90;99.90;;;;;;5065608;28;20032;-83
2021/11/19 12:48:13;;;;;;;;;;;14.00;99.90;;;;;;5064160;28;20115;-83
2021/11/19 12:50:46;;;;;;;56.13;32.80;;;14.00;99.90;;;;;;5055218;28;19916;-83
2021/11/19 12:53:52;;;;;;;57.35;33.00;;;14.00;99.90;;;;;;5066645;28;20031;-84